sensor_id;sensor_type;location;lat;lon;timestamp;P1;durP1;ratioP1;P2;durP2;ratioP2
42036;SDS011;30340;52.004;5.908;2022-07-03T00:01:28;0.65;;;0.57;;
42036;SDS011;30340;52.004;5.908;2022-07-03T00:03:53;0.95;;;0.60;;
42036;SDS011;30340;52.004;5.908;2022-07-03T00:06:19;0.68;;;0.65;;
42036;SDS011;30340;52.004;5.908;2022-07-03T00:08:44;1.30;;;0.70;;
42036;SDS011;30340;52.004;5.908;2022-07-03T00:11:10;0.63;;;0.60;;
42036;SDS011;30340;52.004;5.908;2022-07-03T00:13:36;1.15;;;0.60;;
42036;SDS011;30340;52.004;5.908;2022-07-03T00:16:02;1.23;;;0.63;;
42036;SDS011;30340;52.004;5.908;2022-07-03T00:18:28;1.98;;;0.50;;
42036;SDS011;30340;52.004;5.908;2022-07-03T00:21:00;1.73;;;0.80;;
42036;SDS011;30340;52.004;5.908;2022-07-03T00:23:29;0.85;;;0.70;;
42036;SDS011;30340;52.004;5.908;2022-07-03T00:26:04;0.70;;;0.60;;
42036;SDS011;30340;52.004;5.908;2022-07-03T00:28:30;0.52;;;0.52;;
42036;SDS011;30340;52.004;5.908;2022-07-03T00:30:57;0.82;;;0.70;;
42036;SDS011;30340;52.004;5.908;2022-07-03T00:33:23;1.00;;;0.65;;
42036;SDS011;30340;52.004;5.908;2022-07-03T00:35:52;1.67;;;0.85;;
42036;SDS011;30340;52.004;5.908;2022-07-03T00:38:20;1.52;;;0.75;;
42036;SDS011;30340;52.004;5.908;2022-07-03T00:40:47;0.75;;;0.75;;
42036;SDS011;30340;52.004;5.908;2022-07-03T00:43:13;1.48;;;0.75;;
42036;SDS011;30340;52.004;5.908;2022-07-03T00:45:40;0.65;;;0.60;;
42036;SDS011;30340;52.004;5.908;2022-07-03T00:48:12;0.77;;;0.60;;
42036;SDS011;30340;52.004;5.908;2022-07-03T00:50:39;0.75;;;0.60;;
42036;SDS011;30340;52.004;5.908;2022-07-03T00:53:12;2.08;;;1.00;;
42036;SDS011;30340;52.004;5.908;2022-07-03T00:55:38;1.67;;;0.73;;
42036;SDS011;30340;52.004;5.908;2022-07-03T00:58:07;3.13;;;1.02;;
42036;SDS011;30340;52.004;5.908;2022-07-03T01:00:32;1.00;;;0.90;;
42036;SDS011;30340;52.004;5.908;2022-07-03T01:03:07;2.17;;;0.80;;
42036;SDS011;30340;52.004;5.908;2022-07-03T01:05:38;0.73;;;0.73;;
42036;SDS011;30340;52.004;5.908;2022-07-03T01:13:43;2.63;;;0.88;;
42036;SDS011;30340;52.004;5.908;2022-07-03T01:16:27;1.65;;;0.70;;
42036;SDS011;30340;52.004;5.908;2022-07-03T01:22:01;1.50;;;0.80;;
42036;SDS011;30340;52.004;5.908;2022-07-03T01:28:02;1.20;;;0.90;;
42036;SDS011;30340;52.004;5.908;2022-07-03T01:30:12;2.38;;;1.00;;
42036;SDS011;30340;52.004;5.908;2022-07-03T01:32:45;1.25;;;1.00;;
42036;SDS011;30340;52.004;5.908;2022-07-03T01:35:19;2.35;;;1.10;;
42036;SDS011;30340;52.004;5.908;2022-07-03T01:37:46;1.25;;;1.15;;
42036;SDS011;30340;52.004;5.908;2022-07-03T01:40:15;1.10;;;0.95;;
42036;SDS011;30340;52.004;5.908;2022-07-03T01:42:42;2.35;;;1.10;;
42036;SDS011;30340;52.004;5.908;2022-07-03T01:45:10;1.48;;;1.00;;
42036;SDS011;30340;52.004;5.908;2022-07-03T01:47:39;2.10;;;1.20;;
42036;SDS011;30340;52.004;5.908;2022-07-03T01:50:06;3.03;;;1.80;;
42036;SDS011;30340;52.004;5.908;2022-07-03T01:52:37;2.72;;;1.60;;
42036;SDS011;30340;52.004;5.908;2022-07-03T01:55:07;2.10;;;1.80;;
42036;SDS011;30340;52.004;5.908;2022-07-03T01:57:37;3.95;;;2.10;;
42036;SDS011;30340;52.004;5.908;2022-07-03T02:00:06;2.63;;;2.00;;
42036;SDS011;30340;52.004;5.908;2022-07-03T02:02:33;3.17;;;1.98;;
42036;SDS011;30340;52.004;5.908;2022-07-03T02:05:08;4.13;;;1.90;;
42036;SDS011;30340;52.004;5.908;2022-07-03T02:07:49;3.88;;;2.00;;
42036;SDS011;30340;52.004;5.908;2022-07-03T02:10:23;2.75;;;1.80;;
42036;SDS011;30340;52.004;5.908;2022-07-03T02:12:59;2.67;;;1.80;;
42036;SDS011;30340;52.004;5.908;2022-07-03T02:15:30;3.42;;;2.00;;
42036;SDS011;30340;52.004;5.908;2022-07-03T02:17:57;3.10;;;2.10;;
42036;SDS011;30340;52.004;5.908;2022-07-03T02:20:32;2.47;;;2.10;;
42036;SDS011;30340;52.004;5.908;2022-07-03T02:23:02;3.55;;;2.15;;
42036;SDS011;30340;52.004;5.908;2022-07-03T02:25:34;5.15;;;2.35;;
42036;SDS011;30340;52.004;5.908;2022-07-03T02:33:14;3.78;;;2.45;;
42036;SDS011;30340;52.004;5.908;2022-07-03T02:35:44;3.22;;;2.33;;
42036;SDS011;30340;52.004;5.908;2022-07-03T02:38:17;3.20;;;1.95;;
42036;SDS011;30340;52.004;5.908;2022-07-03T02:40:46;3.17;;;2.13;;
42036;SDS011;30340;52.004;5.908;2022-07-03T02:51:59;2.75;;;2.10;;
42036;SDS011;30340;52.004;5.908;2022-07-03T02:54:46;2.45;;;2.22;;
42036;SDS011;30340;52.004;5.908;2022-07-03T02:57:13;2.90;;;2.00;;
42036;SDS011;30340;52.004;5.908;2022-07-03T02:59:57;3.33;;;2.10;;
42036;SDS011;30340;52.004;5.908;2022-07-03T03:10:27;3.45;;;2.00;;
42036;SDS011;30340;52.004;5.908;2022-07-03T03:12:57;3.15;;;1.90;;
42036;SDS011;30340;52.004;5.908;2022-07-03T03:15:29;2.40;;;1.90;;
42036;SDS011;30340;52.004;5.908;2022-07-03T03:17:56;2.65;;;2.10;;
42036;SDS011;30340;52.004;5.908;2022-07-03T03:20:27;3.20;;;2.50;;
42036;SDS011;30340;52.004;5.908;2022-07-03T03:25:58;2.97;;;2.45;;
42036;SDS011;30340;52.004;5.908;2022-07-03T03:28:24;2.47;;;2.20;;
42036;SDS011;30340;52.004;5.908;2022-07-03T03:30:50;2.40;;;2.20;;
42036;SDS011;30340;52.004;5.908;2022-07-03T03:33:16;3.80;;;2.42;;
42036;SDS011;30340;52.004;5.908;2022-07-03T03:35:42;2.50;;;2.15;;
42036;SDS011;30340;52.004;5.908;2022-07-03T03:38:08;3.45;;;2.15;;
42036;SDS011;30340;52.004;5.908;2022-07-03T03:40:33;2.83;;;2.13;;
42036;SDS011;30340;52.004;5.908;2022-07-03T03:43:00;2.53;;;1.90;;
42036;SDS011;30340;52.004;5.908;2022-07-03T03:45:26;2.58;;;2.13;;
42036;SDS011;30340;52.004;5.908;2022-07-03T03:47:52;2.53;;;1.98;;
42036;SDS011;30340;52.004;5.908;2022-07-03T03:50:18;2.22;;;2.03;;
42036;SDS011;30340;52.004;5.908;2022-07-03T03:52:43;2.30;;;2.10;;
42036;SDS011;30340;52.004;5.908;2022-07-03T03:55:09;2.45;;;2.10;;
42036;SDS011;30340;52.004;5.908;2022-07-03T03:57:34;2.17;;;1.90;;
42036;SDS011;30340;52.004;5.908;2022-07-03T04:00:01;3.47;;;2.20;;
42036;SDS011;30340;52.004;5.908;2022-07-03T04:02:31;4.18;;;2.40;;
42036;SDS011;30340;52.004;5.908;2022-07-03T04:04:57;2.60;;;2.20;;
42036;SDS011;30340;52.004;5.908;2022-07-03T04:07:23;2.60;;;1.83;;
42036;SDS011;30340;52.004;5.908;2022-07-03T04:09:48;2.40;;;1.80;;
42036;SDS011;30340;52.004;5.908;2022-07-03T04:12:14;3.17;;;1.80;;
42036;SDS011;30340;52.004;5.908;2022-07-03T04:14:40;1.80;;;1.60;;
42036;SDS011;30340;52.004;5.908;2022-07-03T04:17:06;1.70;;;1.60;;
42036;SDS011;30340;52.004;5.908;2022-07-03T04:19:31;2.17;;;1.60;;
42036;SDS011;30340;52.004;5.908;2022-07-03T04:21:57;2.13;;;1.50;;
42036;SDS011;30340;52.004;5.908;2022-07-03T04:24:23;2.47;;;1.50;;
42036;SDS011;30340;52.004;5.908;2022-07-03T04:26:49;2.08;;;1.52;;
42036;SDS011;30340;52.004;5.908;2022-07-03T04:29:14;2.60;;;1.60;;
42036;SDS011;30340;52.004;5.908;2022-07-03T04:31:40;1.73;;;1.10;;
42036;SDS011;30340;52.004;5.908;2022-07-03T04:34:06;3.03;;;1.50;;
42036;SDS011;30340;52.004;5.908;2022-07-03T04:36:31;2.13;;;1.70;;
42036;SDS011;30340;52.004;5.908;2022-07-03T04:38:57;2.30;;;1.42;;
42036;SDS011;30340;52.004;5.908;2022-07-03T04:41:23;2.35;;;1.27;;
42036;SDS011;30340;52.004;5.908;2022-07-03T04:43:48;1.40;;;1.10;;
42036;SDS011;30340;52.004;5.908;2022-07-03T04:46:14;1.75;;;1.17;;
42036;SDS011;30340;52.004;5.908;2022-07-03T04:48:40;1.20;;;1.10;;
42036;SDS011;30340;52.004;5.908;2022-07-03T04:51:05;1.85;;;1.20;;
42036;SDS011;30340;52.004;5.908;2022-07-03T04:53:31;1.83;;;1.20;;
42036;SDS011;30340;52.004;5.908;2022-07-03T04:55:56;1.58;;;1.23;;
42036;SDS011;30340;52.004;5.908;2022-07-03T04:58:22;1.10;;;1.00;;
42036;SDS011;30340;52.004;5.908;2022-07-03T05:00:47;1.73;;;1.10;;
42036;SDS011;30340;52.004;5.908;2022-07-03T05:03:13;2.70;;;0.93;;
42036;SDS011;30340;52.004;5.908;2022-07-03T05:05:38;1.42;;;0.80;;
42036;SDS011;30340;52.004;5.908;2022-07-03T05:08:04;2.15;;;0.80;;
42036;SDS011;30340;52.004;5.908;2022-07-03T05:10:30;1.50;;;0.77;;
42036;SDS011;30340;52.004;5.908;2022-07-03T05:12:55;1.20;;;0.80;;
42036;SDS011;30340;52.004;5.908;2022-07-03T05:15:21;0.95;;;0.90;;
42036;SDS011;30340;52.004;5.908;2022-07-03T05:17:46;2.67;;;0.88;;
42036;SDS011;30340;52.004;5.908;2022-07-03T05:20:12;1.17;;;0.70;;
42036;SDS011;30340;52.004;5.908;2022-07-03T05:22:59;1.67;;;0.77;;
42036;SDS011;30340;52.004;5.908;2022-07-03T05:25:26;1.00;;;0.90;;
42036;SDS011;30340;52.004;5.908;2022-07-03T05:27:53;1.55;;;0.73;;
42036;SDS011;30340;52.004;5.908;2022-07-03T05:30:20;2.42;;;0.90;;
42036;SDS011;30340;52.004;5.908;2022-07-03T05:32:47;2.45;;;0.90;;
42036;SDS011;30340;52.004;5.908;2022-07-03T05:35:13;0.95;;;0.73;;
42036;SDS011;30340;52.004;5.908;2022-07-03T05:37:38;1.42;;;0.80;;
42036;SDS011;30340;52.004;5.908;2022-07-03T05:40:05;1.65;;;0.80;;
42036;SDS011;30340;52.004;5.908;2022-07-03T05:42:31;0.85;;;0.70;;
42036;SDS011;30340;52.004;5.908;2022-07-03T05:44:56;1.00;;;0.60;;
42036;SDS011;30340;52.004;5.908;2022-07-03T05:47:22;2.15;;;0.80;;
42036;SDS011;30340;52.004;5.908;2022-07-03T05:49:48;0.68;;;0.68;;
42036;SDS011;30340;52.004;5.908;2022-07-03T05:52:13;2.08;;;0.63;;
42036;SDS011;30340;52.004;5.908;2022-07-03T05:54:39;1.02;;;0.60;;
42036;SDS011;30340;52.004;5.908;2022-07-03T05:57:05;0.65;;;0.50;;
42036;SDS011;30340;52.004;5.908;2022-07-03T05:59:30;1.40;;;0.70;;
42036;SDS011;30340;52.004;5.908;2022-07-03T06:01:56;1.65;;;0.90;;
42036;SDS011;30340;52.004;5.908;2022-07-03T06:04:22;1.40;;;0.70;;
42036;SDS011;30340;52.004;5.908;2022-07-03T06:06:47;2.47;;;0.70;;
42036;SDS011;30340;52.004;5.908;2022-07-03T06:09:13;1.52;;;0.80;;
42036;SDS011;30340;52.004;5.908;2022-07-03T06:11:38;2.75;;;0.90;;
42036;SDS011;30340;52.004;5.908;2022-07-03T06:14:04;1.38;;;0.90;;
42036;SDS011;30340;52.004;5.908;2022-07-03T06:16:29;3.20;;;0.90;;
42036;SDS011;30340;52.004;5.908;2022-07-03T06:18:55;1.55;;;0.80;;
42036;SDS011;30340;52.004;5.908;2022-07-03T06:21:20;1.35;;;0.93;;
42036;SDS011;30340;52.004;5.908;2022-07-03T06:23:46;1.17;;;0.80;;
42036;SDS011;30340;52.004;5.908;2022-07-03T06:26:12;1.45;;;0.80;;
42036;SDS011;30340;52.004;5.908;2022-07-03T06:28:39;1.25;;;0.63;;
42036;SDS011;30340;52.004;5.908;2022-07-03T06:31:04;1.33;;;0.70;;
42036;SDS011;30340;52.004;5.908;2022-07-03T06:33:30;3.15;;;1.10;;
42036;SDS011;30340;52.004;5.908;2022-07-03T06:35:56;1.60;;;0.65;;
42036;SDS011;30340;52.004;5.908;2022-07-03T06:38:21;1.67;;;0.80;;
42036;SDS011;30340;52.004;5.908;2022-07-03T06:40:47;2.50;;;0.80;;
42036;SDS011;30340;52.004;5.908;2022-07-03T06:43:12;1.40;;;0.77;;
42036;SDS011;30340;52.004;5.908;2022-07-03T06:45:38;1.65;;;0.80;;
42036;SDS011;30340;52.004;5.908;2022-07-03T06:48:03;2.30;;;0.60;;
42036;SDS011;30340;52.004;5.908;2022-07-03T06:50:29;1.38;;;0.80;;
42036;SDS011;30340;52.004;5.908;2022-07-03T06:52:54;1.58;;;0.70;;
42036;SDS011;30340;52.004;5.908;2022-07-03T06:55:20;2.33;;;0.95;;
42036;SDS011;30340;52.004;5.908;2022-07-03T06:57:46;1.35;;;0.70;;
42036;SDS011;30340;52.004;5.908;2022-07-03T07:00:11;2.78;;;0.82;;
42036;SDS011;30340;52.004;5.908;2022-07-03T07:02:37;2.47;;;0.88;;
42036;SDS011;30340;52.004;5.908;2022-07-03T07:05:03;1.92;;;0.70;;
42036;SDS011;30340;52.004;5.908;2022-07-03T07:07:29;1.35;;;0.75;;
42036;SDS011;30340;52.004;5.908;2022-07-03T07:09:55;2.00;;;0.80;;
42036;SDS011;30340;52.004;5.908;2022-07-03T07:12:20;1.02;;;0.80;;
42036;SDS011;30340;52.004;5.908;2022-07-03T07:14:46;1.02;;;0.60;;
42036;SDS011;30340;52.004;5.908;2022-07-03T07:17:11;1.05;;;0.50;;
42036;SDS011;30340;52.004;5.908;2022-07-03T07:19:37;0.65;;;0.50;;
42036;SDS011;30340;52.004;5.908;2022-07-03T07:22:02;1.50;;;0.63;;
42036;SDS011;30340;52.004;5.908;2022-07-03T07:24:28;1.67;;;0.75;;
42036;SDS011;30340;52.004;5.908;2022-07-03T07:26:54;1.55;;;0.65;;
42036;SDS011;30340;52.004;5.908;2022-07-03T07:29:20;1.63;;;0.80;;
42036;SDS011;30340;52.004;5.908;2022-07-03T07:31:45;2.85;;;0.60;;
42036;SDS011;30340;52.004;5.908;2022-07-03T07:34:11;2.35;;;0.70;;
42036;SDS011;30340;52.004;5.908;2022-07-03T07:36:36;1.80;;;0.73;;
42036;SDS011;30340;52.004;5.908;2022-07-03T07:39:02;1.67;;;0.70;;
42036;SDS011;30340;52.004;5.908;2022-07-03T07:41:28;1.55;;;0.60;;
42036;SDS011;30340;52.004;5.908;2022-07-03T07:43:53;1.23;;;0.60;;
42036;SDS011;30340;52.004;5.908;2022-07-03T07:46:19;2.35;;;0.90;;
42036;SDS011;30340;52.004;5.908;2022-07-03T07:48:44;2.35;;;0.73;;
42036;SDS011;30340;52.004;5.908;2022-07-03T07:51:10;1.80;;;0.63;;
42036;SDS011;30340;52.004;5.908;2022-07-03T07:53:36;3.17;;;0.88;;
42036;SDS011;30340;52.004;5.908;2022-07-03T07:56:02;2.42;;;0.80;;
42036;SDS011;30340;52.004;5.908;2022-07-03T07:58:27;1.77;;;0.70;;
42036;SDS011;30340;52.004;5.908;2022-07-03T08:00:53;2.35;;;0.70;;
42036;SDS011;30340;52.004;5.908;2022-07-03T08:03:37;1.85;;;0.70;;
42036;SDS011;30340;52.004;5.908;2022-07-03T08:06:21;0.60;;;0.52;;
42036;SDS011;30340;52.004;5.908;2022-07-03T08:08:47;0.80;;;0.30;;
42036;SDS011;30340;52.004;5.908;2022-07-03T08:11:12;2.63;;;0.88;;
42036;SDS011;30340;52.004;5.908;2022-07-03T08:13:38;1.42;;;0.80;;
42036;SDS011;30340;52.004;5.908;2022-07-03T08:16:03;2.15;;;0.60;;
42036;SDS011;30340;52.004;5.908;2022-07-03T08:18:29;2.28;;;0.50;;
42036;SDS011;30340;52.004;5.908;2022-07-03T08:20:55;1.88;;;0.80;;
42036;SDS011;30340;52.004;5.908;2022-07-03T08:23:20;1.25;;;0.63;;
42036;SDS011;30340;52.004;5.908;2022-07-03T08:25:46;2.25;;;0.88;;
42036;SDS011;30340;52.004;5.908;2022-07-03T08:28:11;1.67;;;0.63;;
42036;SDS011;30340;52.004;5.908;2022-07-03T08:30:37;1.08;;;0.70;;
42036;SDS011;30340;52.004;5.908;2022-07-03T08:33:02;1.65;;;0.75;;
42036;SDS011;30340;52.004;5.908;2022-07-03T08:35:28;1.40;;;0.57;;
42036;SDS011;30340;52.004;5.908;2022-07-03T08:37:54;1.05;;;0.60;;
42036;SDS011;30340;52.004;5.908;2022-07-03T08:40:21;1.95;;;0.68;;
42036;SDS011;30340;52.004;5.908;2022-07-03T08:45:20;0.73;;;0.60;;
42036;SDS011;30340;52.004;5.908;2022-07-03T08:47:47;1.58;;;0.68;;
42036;SDS011;30340;52.004;5.908;2022-07-03T08:50:14;1.05;;;0.60;;
42036;SDS011;30340;52.004;5.908;2022-07-03T08:52:41;1.55;;;0.70;;
42036;SDS011;30340;52.004;5.908;2022-07-03T08:55:08;1.38;;;0.70;;
42036;SDS011;30340;52.004;5.908;2022-07-03T08:57:38;1.08;;;0.70;;
42036;SDS011;30340;52.004;5.908;2022-07-03T09:00:06;1.45;;;0.70;;
42036;SDS011;30340;52.004;5.908;2022-07-03T09:02:33;2.25;;;0.63;;
42036;SDS011;30340;52.004;5.908;2022-07-03T09:04:59;1.48;;;0.80;;
42036;SDS011;30340;52.004;5.908;2022-07-03T09:07:27;2.25;;;0.80;;
42036;SDS011;30340;52.004;5.908;2022-07-03T09:09:56;1.92;;;0.70;;
42036;SDS011;30340;52.004;5.908;2022-07-03T09:12:21;1.98;;;0.75;;
42036;SDS011;30340;52.004;5.908;2022-07-03T09:14:47;2.10;;;0.80;;
42036;SDS011;30340;52.004;5.908;2022-07-03T09:17:13;1.63;;;0.70;;
42036;SDS011;30340;52.004;5.908;2022-07-03T09:22:28;1.55;;;0.80;;
42036;SDS011;30340;52.004;5.908;2022-07-03T09:25:04;0.98;;;0.52;;
42036;SDS011;30340;52.004;5.908;2022-07-03T09:27:35;1.20;;;0.70;;
42036;SDS011;30340;52.004;5.908;2022-07-03T09:30:06;1.95;;;0.70;;
42036;SDS011;30340;52.004;5.908;2022-07-03T09:32:45;1.98;;;0.70;;
42036;SDS011;30340;52.004;5.908;2022-07-03T09:35:19;1.55;;;0.70;;
42036;SDS011;30340;52.004;5.908;2022-07-03T09:37:54;1.67;;;0.68;;
42036;SDS011;30340;52.004;5.908;2022-07-03T09:40:20;2.42;;;1.00;;
42036;SDS011;30340;52.004;5.908;2022-07-03T09:45:23;2.38;;;0.80;;
42036;SDS011;30340;52.004;5.908;2022-07-03T09:47:48;1.83;;;0.80;;
42036;SDS011;30340;52.004;5.908;2022-07-03T09:50:14;0.93;;;0.70;;
42036;SDS011;30340;52.004;5.908;2022-07-03T09:52:41;1.33;;;0.60;;
42036;SDS011;30340;52.004;5.908;2022-07-03T09:57:34;2.05;;;0.75;;
42036;SDS011;30340;52.004;5.908;2022-07-03T10:05:29;1.40;;;0.80;;
42036;SDS011;30340;52.004;5.908;2022-07-03T10:10:36;0.47;;;0.47;;
42036;SDS011;30340;52.004;5.908;2022-07-03T10:13:03;0.93;;;0.60;;
42036;SDS011;30340;52.004;5.908;2022-07-03T10:15:30;3.28;;;0.80;;
42036;SDS011;30340;52.004;5.908;2022-07-03T10:17:57;2.10;;;0.93;;
42036;SDS011;30340;52.004;5.908;2022-07-03T10:22:49;1.35;;;0.57;;
42036;SDS011;30340;52.004;5.908;2022-07-03T10:25:17;1.42;;;0.60;;
42036;SDS011;30340;52.004;5.908;2022-07-03T10:27:43;1.33;;;0.60;;
42036;SDS011;30340;52.004;5.908;2022-07-03T10:30:11;3.20;;;0.70;;
42036;SDS011;30340;52.004;5.908;2022-07-03T10:32:38;1.45;;;0.60;;
42036;SDS011;30340;52.004;5.908;2022-07-03T10:35:06;2.65;;;0.75;;
42036;SDS011;30340;52.004;5.908;2022-07-03T10:37:37;0.93;;;0.60;;
42036;SDS011;30340;52.004;5.908;2022-07-03T10:40:14;1.27;;;0.50;;
42036;SDS011;30340;52.004;5.908;2022-07-03T10:43:09;1.98;;;0.60;;
42036;SDS011;30340;52.004;5.908;2022-07-03T10:46:08;2.80;;;1.00;;
42036;SDS011;30340;52.004;5.908;2022-07-03T10:48:50;1.83;;;0.60;;
42036;SDS011;30340;52.004;5.908;2022-07-03T10:51:26;1.55;;;0.70;;
42036;SDS011;30340;52.004;5.908;2022-07-03T10:54:12;2.53;;;0.70;;
42036;SDS011;30340;52.004;5.908;2022-07-03T10:59:23;2.03;;;0.90;;
42036;SDS011;30340;52.004;5.908;2022-07-03T11:02:20;1.50;;;0.70;;
42036;SDS011;30340;52.004;5.908;2022-07-03T11:07:21;2.03;;;0.90;;
42036;SDS011;30340;52.004;5.908;2022-07-03T11:15:25;3.35;;;0.75;;
42036;SDS011;30340;52.004;5.908;2022-07-03T11:25:51;1.85;;;0.50;;
42036;SDS011;30340;52.004;5.908;2022-07-03T11:38:45;1.90;;;0.73;;
42036;SDS011;30340;52.004;5.908;2022-07-03T11:41:14;1.75;;;0.73;;
42036;SDS011;30340;52.004;5.908;2022-07-03T11:48:41;0.88;;;0.60;;
42036;SDS011;30340;52.004;5.908;2022-07-03T11:51:07;1.00;;;0.60;;
42036;SDS011;30340;52.004;5.908;2022-07-03T11:53:33;1.33;;;0.70;;
42036;SDS011;30340;52.004;5.908;2022-07-03T11:56:08;1.65;;;0.60;;
42036;SDS011;30340;52.004;5.908;2022-07-03T11:58:42;0.90;;;0.50;;
42036;SDS011;30340;52.004;5.908;2022-07-03T12:03:47;0.68;;;0.30;;
42036;SDS011;30340;52.004;5.908;2022-07-03T12:06:16;1.88;;;0.60;;
42036;SDS011;30340;52.004;5.908;2022-07-03T12:08:42;0.47;;;0.40;;
42036;SDS011;30340;52.004;5.908;2022-07-03T12:11:12;1.95;;;0.70;;
42036;SDS011;30340;52.004;5.908;2022-07-03T12:13:40;2.00;;;0.70;;
42036;SDS011;30340;52.004;5.908;2022-07-03T12:16:09;1.42;;;0.60;;
42036;SDS011;30340;52.004;5.908;2022-07-03T12:21:19;1.55;;;0.60;;
42036;SDS011;30340;52.004;5.908;2022-07-03T12:26:12;1.00;;;0.52;;
42036;SDS011;30340;52.004;5.908;2022-07-03T12:28:39;1.17;;;0.68;;
42036;SDS011;30340;52.004;5.908;2022-07-03T12:31:05;0.70;;;0.50;;
42036;SDS011;30340;52.004;5.908;2022-07-03T12:33:32;1.15;;;0.50;;
42036;SDS011;30340;52.004;5.908;2022-07-03T12:36:07;0.60;;;0.50;;
42036;SDS011;30340;52.004;5.908;2022-07-03T12:38:36;1.08;;;0.57;;
42036;SDS011;30340;52.004;5.908;2022-07-03T12:41:05;0.55;;;0.50;;
42036;SDS011;30340;52.004;5.908;2022-07-03T12:43:38;1.85;;;0.85;;
42036;SDS011;30340;52.004;5.908;2022-07-03T12:48:57;0.70;;;0.47;;
42036;SDS011;30340;52.004;5.908;2022-07-03T12:56:36;1.50;;;0.80;;
42036;SDS011;30340;52.004;5.908;2022-07-03T12:59:02;2.47;;;0.70;;
42036;SDS011;30340;52.004;5.908;2022-07-03T13:01:59;1.80;;;0.50;;
42036;SDS011;30340;52.004;5.908;2022-07-03T13:04:33;1.85;;;0.63;;
42036;SDS011;30340;52.004;5.908;2022-07-03T13:07:04;1.98;;;0.70;;
42036;SDS011;30340;52.004;5.908;2022-07-03T13:09:32;2.78;;;0.68;;
42036;SDS011;30340;52.004;5.908;2022-07-03T13:12:01;1.55;;;0.60;;
42036;SDS011;30340;52.004;5.908;2022-07-03T13:14:28;1.35;;;0.75;;
42036;SDS011;30340;52.004;5.908;2022-07-03T13:16:55;0.57;;;0.50;;
42036;SDS011;30340;52.004;5.908;2022-07-03T13:19:22;0.63;;;0.43;;
42036;SDS011;30340;52.004;5.908;2022-07-03T13:21:50;2.45;;;0.70;;
42036;SDS011;30340;52.004;5.908;2022-07-03T13:24:19;1.15;;;0.60;;
42036;SDS011;30340;52.004;5.908;2022-07-03T13:26:45;0.60;;;0.60;;
42036;SDS011;30340;52.004;5.908;2022-07-03T13:29:12;1.00;;;0.43;;
42036;SDS011;30340;52.004;5.908;2022-07-03T13:31:37;1.85;;;0.57;;
42036;SDS011;30340;52.004;5.908;2022-07-03T13:34:03;1.15;;;0.57;;
42036;SDS011;30340;52.004;5.908;2022-07-03T13:36:29;0.40;;;0.40;;
42036;SDS011;30340;52.004;5.908;2022-07-03T13:38:56;1.00;;;0.60;;
42036;SDS011;30340;52.004;5.908;2022-07-03T13:41:22;1.38;;;0.57;;
42036;SDS011;30340;52.004;5.908;2022-07-03T13:43:49;0.60;;;0.50;;
42036;SDS011;30340;52.004;5.908;2022-07-03T13:46:16;1.17;;;0.57;;
42036;SDS011;30340;52.004;5.908;2022-07-03T13:48:42;2.03;;;0.60;;
42036;SDS011;30340;52.004;5.908;2022-07-03T13:51:08;1.63;;;0.80;;
42036;SDS011;30340;52.004;5.908;2022-07-03T13:53:34;0.88;;;0.50;;
42036;SDS011;30340;52.004;5.908;2022-07-03T13:56:00;1.27;;;0.65;;
42036;SDS011;30340;52.004;5.908;2022-07-03T13:58:26;0.82;;;0.60;;
42036;SDS011;30340;52.004;5.908;2022-07-03T14:00:52;0.90;;;0.70;;
42036;SDS011;30340;52.004;5.908;2022-07-03T14:03:19;1.10;;;0.75;;
42036;SDS011;30340;52.004;5.908;2022-07-03T14:05:45;1.75;;;0.77;;
42036;SDS011;30340;52.004;5.908;2022-07-03T14:08:11;0.90;;;0.68;;
42036;SDS011;30340;52.004;5.908;2022-07-03T14:10:37;0.65;;;0.60;;
42036;SDS011;30340;52.004;5.908;2022-07-03T14:13:03;1.02;;;0.60;;
42036;SDS011;30340;52.004;5.908;2022-07-03T14:15:29;1.25;;;0.80;;
42036;SDS011;30340;52.004;5.908;2022-07-03T14:17:54;1.20;;;0.70;;
42036;SDS011;30340;52.004;5.908;2022-07-03T14:20:21;1.38;;;0.70;;
42036;SDS011;30340;52.004;5.908;2022-07-03T14:22:46;1.15;;;0.47;;
42036;SDS011;30340;52.004;5.908;2022-07-03T14:25:12;0.93;;;0.60;;
42036;SDS011;30340;52.004;5.908;2022-07-03T14:27:37;1.42;;;0.80;;
42036;SDS011;30340;52.004;5.908;2022-07-03T14:30:22;1.67;;;0.70;;
42036;SDS011;30340;52.004;5.908;2022-07-03T14:33:06;0.75;;;0.70;;
42036;SDS011;30340;52.004;5.908;2022-07-03T14:35:31;1.48;;;0.60;;
42036;SDS011;30340;52.004;5.908;2022-07-03T14:37:57;0.75;;;0.55;;
42036;SDS011;30340;52.004;5.908;2022-07-03T14:40:23;1.88;;;0.82;;
42036;SDS011;30340;52.004;5.908;2022-07-03T14:42:48;0.90;;;0.50;;
42036;SDS011;30340;52.004;5.908;2022-07-03T14:45:14;1.15;;;0.70;;
42036;SDS011;30340;52.004;5.908;2022-07-03T14:47:39;1.95;;;0.93;;
42036;SDS011;30340;52.004;5.908;2022-07-03T14:50:05;1.38;;;0.70;;
42036;SDS011;30340;52.004;5.908;2022-07-03T14:52:31;1.80;;;0.70;;
42036;SDS011;30340;52.004;5.908;2022-07-03T14:54:57;1.63;;;0.70;;
42036;SDS011;30340;52.004;5.908;2022-07-03T14:59:57;2.05;;;0.80;;
42036;SDS011;30340;52.004;5.908;2022-07-03T15:03:12;1.67;;;0.85;;
42036;SDS011;30340;52.004;5.908;2022-07-03T15:05:28;3.00;;;0.80;;
42036;SDS011;30340;52.004;5.908;2022-07-03T15:10:55;1.50;;;0.85;;
42036;SDS011;30340;52.004;5.908;2022-07-03T15:13:25;2.10;;;0.70;;
42036;SDS011;30340;52.004;5.908;2022-07-03T15:15:52;1.90;;;1.08;;
42036;SDS011;30340;52.004;5.908;2022-07-03T15:18:18;1.60;;;0.60;;
42036;SDS011;30340;52.004;5.908;2022-07-03T15:20:45;1.52;;;0.70;;
42036;SDS011;30340;52.004;5.908;2022-07-03T15:23:11;1.55;;;0.70;;
42036;SDS011;30340;52.004;5.908;2022-07-03T15:25:37;2.00;;;0.70;;
42036;SDS011;30340;52.004;5.908;2022-07-03T15:28:08;2.40;;;1.13;;
42036;SDS011;30340;52.004;5.908;2022-07-03T15:30:34;1.13;;;0.73;;
42036;SDS011;30340;52.004;5.908;2022-07-03T15:33:01;0.95;;;0.60;;
42036;SDS011;30340;52.004;5.908;2022-07-03T15:35:27;2.90;;;0.90;;
42036;SDS011;30340;52.004;5.908;2022-07-03T15:51:34;2.15;;;0.80;;
42036;SDS011;30340;52.004;5.908;2022-07-03T15:54:09;2.50;;;0.85;;
42036;SDS011;30340;52.004;5.908;2022-07-03T15:56:38;1.92;;;0.68;;
42036;SDS011;30340;52.004;5.908;2022-07-03T15:59:12;1.02;;;0.80;;
42036;SDS011;30340;52.004;5.908;2022-07-03T16:01:49;1.15;;;0.70;;
42036;SDS011;30340;52.004;5.908;2022-07-03T16:04:49;0.95;;;0.55;;
42036;SDS011;30340;52.004;5.908;2022-07-03T16:07:27;0.75;;;0.70;;
42036;SDS011;30340;52.004;5.908;2022-07-03T16:09:54;2.38;;;0.70;;
42036;SDS011;30340;52.004;5.908;2022-07-03T16:12:22;0.52;;;0.50;;
42036;SDS011;30340;52.004;5.908;2022-07-03T16:14:50;1.08;;;0.68;;
42036;SDS011;30340;52.004;5.908;2022-07-03T16:17:17;1.52;;;0.70;;
42036;SDS011;30340;52.004;5.908;2022-07-03T16:19:47;0.60;;;0.60;;
42036;SDS011;30340;52.004;5.908;2022-07-03T16:22:13;1.15;;;0.60;;
42036;SDS011;30340;52.004;5.908;2022-07-03T16:24:40;1.10;;;0.52;;
42036;SDS011;30340;52.004;5.908;2022-07-03T16:27:10;1.10;;;0.50;;
42036;SDS011;30340;52.004;5.908;2022-07-03T16:29:37;2.22;;;0.70;;
42036;SDS011;30340;52.004;5.908;2022-07-03T16:32:02;1.60;;;0.70;;
42036;SDS011;30340;52.004;5.908;2022-07-03T16:37:15;1.38;;;0.60;;
42036;SDS011;30340;52.004;5.908;2022-07-03T16:40:02;1.13;;;0.60;;
42036;SDS011;30340;52.004;5.908;2022-07-03T16:42:30;1.77;;;0.80;;
42036;SDS011;30340;52.004;5.908;2022-07-03T16:45:00;1.48;;;0.70;;
42036;SDS011;30340;52.004;5.908;2022-07-03T16:47:29;1.05;;;0.70;;
42036;SDS011;30340;52.004;5.908;2022-07-03T16:49:56;0.77;;;0.50;;
42036;SDS011;30340;52.004;5.908;2022-07-03T16:52:22;1.38;;;0.50;;
42036;SDS011;30340;52.004;5.908;2022-07-03T16:54:50;2.22;;;0.73;;
42036;SDS011;30340;52.004;5.908;2022-07-03T16:57:15;1.05;;;0.50;;
42036;SDS011;30340;52.004;5.908;2022-07-03T16:59:41;1.70;;;0.70;;
42036;SDS011;30340;52.004;5.908;2022-07-03T17:02:10;0.80;;;0.60;;
42036;SDS011;30340;52.004;5.908;2022-07-03T17:04:42;0.63;;;0.32;;